createdAt,value
2023-04-04T00:00:27.183Z,100187.50
2023-04-04T00:03:17.712Z,100188.21
2023-04-04T00:05:49.204Z,100174.70
2023-04-04T00:08:21.267Z,100176.84
2023-04-04T00:10:52.643Z,100164.27
2023-04-04T00:13:24.502Z,100165.52
2023-04-04T00:15:55.965Z,100161.77
2023-04-04T00:18:27.573Z,100163.28
2023-04-04T00:20:59.164Z,100161.63
2023-04-04T00:23:30.629Z,100168.09
2023-04-04T00:26:01.862Z,100161.24
2023-04-04T00:28:33.221Z,100157.60
2023-04-04T00:31:04.820Z,100158.67
2023-04-04T00:33:37.025Z,100162.04
2023-04-04T00:36:08.974Z,100169.71
2023-04-04T00:38:40.395Z,100153.69
2023-04-04T00:41:12.105Z,100145.63
2023-04-04T00:43:43.949Z,100143.73
2023-04-04T00:46:17.604Z,100143.23
2023-04-04T00:48:49.003Z,100144.95
2023-04-04T00:51:20.250Z,100151.23
2023-04-04T00:53:51.608Z,100151.39
2023-04-04T00:56:23.677Z,100144.79
2023-04-04T00:58:55.196Z,100145.25
2023-04-04T01:01:26.952Z,100139.95
2023-04-04T01:03:58.712Z,100118.02
2023-04-04T01:06:30.803Z,100127.27
2023-04-04T01:09:02.380Z,100126.48
2023-04-04T01:11:34.421Z,100125.47
2023-04-04T01:14:06.496Z,100117.78
2023-04-04T01:16:37.992Z,100128.53
2023-04-04T01:19:10.692Z,100119.77
2023-04-04T01:21:41.965Z,100128.63
2023-04-04T01:24:13.532Z,100116.27
2023-04-04T01:26:46.953Z,100124.81
2023-04-04T01:29:18.346Z,100126.05
2023-04-04T01:31:51.219Z,100118.89
2023-04-04T01:34:25.042Z,100117.95
2023-04-04T01:36:58.635Z,100126.66
2023-04-04T01:39:32.399Z,100125.74
2023-04-04T01:42:03.875Z,100124.79
2023-04-04T01:44:35.962Z,100112.02
2023-04-04T01:47:09.514Z,100111.60
2023-04-04T01:49:41.032Z,100122.43
2023-04-04T01:52:12.455Z,100127.02
2023-04-04T01:54:43.861Z,100116.84
2023-04-04T01:57:15.312Z,100102.35
2023-04-04T01:59:46.915Z,100095.09
2023-04-04T02:02:18.472Z,100093.27
2023-04-04T02:04:50.097Z,100073.81
2023-04-04T02:07:21.534Z,100064.02
2023-04-04T02:09:53.551Z,100067.23
2023-04-04T02:12:25.051Z,100053.95
2023-04-04T02:14:56.656Z,100064.10
2023-04-04T02:17:28.777Z,100057.84
2023-04-04T02:20:00.199Z,100072.02
2023-04-04T02:22:31.680Z,100075.23
2023-04-04T02:25:03.101Z,100069.04
2023-04-04T02:27:34.676Z,100071.90
2023-04-04T02:30:07.627Z,100074.33
2023-04-04T02:32:38.902Z,100077.96
2023-04-04T02:35:10.688Z,100067.58
2023-04-04T02:37:42.244Z,100047.91
2023-04-04T02:40:14.739Z,100039.79
2023-04-04T02:42:46.601Z,100035.53
2023-04-04T02:45:18.429Z,100033.27
2023-04-04T02:47:52.603Z,100031.61
2023-04-04T02:50:24.138Z,100026.02
2023-04-04T02:52:56.225Z,100025.22
2023-04-04T02:55:27.664Z,100039.34
2023-04-04T02:58:02.050Z,100057.06
2023-04-04T03:00:33.186Z,100060.02
2023-04-04T03:03:04.603Z,100070.20
2023-04-04T03:05:36.429Z,100068.45
2023-04-04T03:08:08.397Z,100070.30
2023-04-04T03:10:39.994Z,100072.86
2023-04-04T03:13:11.536Z,100075.48
2023-04-04T03:15:44.000Z,100078.16
2023-04-04T03:18:19.225Z,100082.02
2023-04-04T03:20:50.758Z,100073.73
2023-04-04T03:23:21.965Z,100078.91
2023-04-04T03:25:55.288Z,100077.27
2023-04-04T03:28:26.878Z,100082.83
2023-04-04T03:30:58.403Z,100080.33
2023-04-04T03:33:29.877Z,100079.35
2023-04-04T03:36:01.409Z,100072.24
2023-04-04T03:38:32.845Z,100072.02
2023-04-04T03:41:04.531Z,100062.41
2023-04-04T03:43:36.152Z,100065.56
2023-04-04T03:46:08.320Z,100070.08
2023-04-04T03:48:39.797Z,100064.96
2023-04-04T03:51:11.309Z,100065.20
2023-04-04T03:53:42.867Z,100062.84
2023-04-04T03:56:14.559Z,100067.09
2023-04-04T03:58:46.139Z,100071.40
2023-04-04T04:01:17.261Z,100061.77
2023-04-04T04:03:48.488Z,100063.89
2023-04-04T04:06:19.933Z,100057.23
2023-04-04T04:08:51.506Z,100053.21
2023-04-04T04:11:22.655Z,100055.00
2023-04-04T04:13:53.768Z,100051.42
2023-04-04T04:16:25.150Z,100059.38
2023-04-04T04:18:57.595Z,100057.44
2023-04-04T04:21:29.080Z,100059.98
2023-04-04T04:24:00.586Z,100061.89
2023-04-04T04:26:31.835Z,100059.62
2023-04-04T04:29:03.350Z,100061.17
2023-04-04T04:31:34.072Z,100063.64
2023-04-04T04:34:08.895Z,100070.68
2023-04-04T04:36:40.370Z,100078.81
2023-04-04T04:39:11.746Z,100092.61
2023-04-04T04:41:43.234Z,100112.08
2023-04-04T04:44:14.778Z,100122.42
2023-04-04T04:46:46.621Z,100128.40
2023-04-04T04:49:18.277Z,100131.16
2023-04-04T04:51:49.724Z,100131.36
2023-04-04T04:54:21.054Z,100129.64
2023-04-04T04:56:52.490Z,100119.55
2023-04-04T04:59:24.220Z,100110.83
2023-04-04T05:01:56.126Z,100104.66
2023-04-04T05:04:27.953Z,100095.89
2023-04-04T05:06:59.343Z,100093.23
2023-04-04T05:09:30.777Z,100094.52
2023-04-04T05:12:02.182Z,100095.66
2023-04-04T05:14:33.629Z,100101.64
2023-04-04T05:17:04.726Z,100093.52
2023-04-04T05:19:36.039Z,100087.90
2023-04-04T05:22:07.598Z,100086.51
2023-04-04T05:24:39.990Z,100090.22
2023-04-04T05:27:11.872Z,100084.13
2023-04-04T05:29:43.246Z,100075.52
2023-04-04T05:32:14.522Z,100073.92
2023-04-04T05:34:45.906Z,100071.70
2023-04-04T05:37:17.556Z,100079.78
2023-04-04T05:39:49.073Z,100057.91
2023-04-04T05:42:20.423Z,100062.61
2023-04-04T05:45:09.971Z,100058.14
2023-04-04T05:47:42.823Z,100062.77
2023-04-04T05:50:14.374Z,100042.11
2023-04-04T05:52:46.172Z,100036.19
2023-04-04T05:55:17.397Z,100037.96
2023-04-04T05:57:51.241Z,100040.45
2023-04-04T06:00:22.960Z,100038.98
2023-04-04T06:02:54.330Z,100034.77
2023-04-04T06:05:25.474Z,100031.91
2023-04-04T06:07:56.411Z,100024.20
2023-04-04T06:10:27.648Z,100029.77
2023-04-04T06:12:58.534Z,100018.67
2023-04-04T06:15:29.427Z,100011.59
2023-04-04T06:18:00.276Z,100025.05
2023-04-04T06:20:31.296Z,100014.06
2023-04-04T06:23:04.765Z,100010.69
2023-04-04T06:25:35.885Z,100010.16
2023-04-04T06:28:08.368Z,100006.39
2023-04-04T06:30:39.675Z,99996.65
2023-04-04T06:33:10.622Z,99994.35
2023-04-04T06:35:41.269Z,99982.20
2023-04-04T06:38:12.120Z,99990.36
2023-04-04T06:40:43.005Z,99978.95
2023-04-04T06:43:14.191Z,99975.44
2023-04-04T06:45:44.931Z,99972.36
2023-04-04T06:48:15.954Z,99973.77
2023-04-04T06:50:47.395Z,99969.17
2023-04-04T06:53:18.551Z,99976.21
2023-04-04T06:55:49.321Z,99970.53
2023-04-04T06:58:20.116Z,99970.20
2023-04-04T07:00:51.476Z,99967.58
2023-04-04T07:03:23.788Z,99952.23
2023-04-04T07:05:54.761Z,99948.95
2023-04-04T07:08:26.562Z,99941.69
2023-04-04T07:10:58.364Z,99937.55
2023-04-04T07:13:29.696Z,99926.02
2023-04-04T07:16:00.548Z,99935.27
2023-04-04T07:18:31.596Z,99934.08
2023-04-04T07:21:02.281Z,99950.95
2023-04-04T07:23:33.109Z,99957.34
2023-04-04T07:26:04.200Z,99956.89
2023-04-04T07:28:34.911Z,99956.80
2023-04-04T07:31:05.984Z,99959.56
2023-04-04T07:33:36.866Z,99959.75
2023-04-04T07:36:07.940Z,99988.61
2023-04-04T07:38:38.944Z,99997.94
2023-04-04T07:41:09.896Z,100008.77
2023-04-04T07:43:40.765Z,100025.99
2023-04-04T07:46:11.951Z,100029.59
2023-04-04T07:48:42.738Z,100029.72
2023-04-04T07:51:13.922Z,100035.11
2023-04-04T07:53:44.899Z,100029.46
2023-04-04T07:56:15.976Z,100037.65
2023-04-04T07:58:46.986Z,100034.02
2023-04-04T08:01:17.992Z,100033.59
2023-04-04T08:03:50.439Z,100030.77
2023-04-04T08:06:21.679Z,100037.90
2023-04-04T08:08:59.539Z,100039.17
2023-04-04T08:26:32.676Z,100033.41
2023-04-04T08:33:10.406Z,100029.23
2023-04-04T08:35:43.818Z,100026.02
2023-04-04T08:36:00.336Z,100028.01
2023-04-04T08:38:14.926Z,100024.77
2023-04-04T08:40:51.009Z,100028.04
2023-04-04T08:43:22.684Z,100028.34
2023-04-04T08:45:55.188Z,100027.84
2023-04-04T08:48:27.097Z,100027.48
2023-04-04T08:50:59.784Z,100032.23
2023-04-04T08:53:30.698Z,100030.71
2023-04-04T08:56:03.210Z,100027.32
2023-04-04T08:58:34.086Z,100028.25
2023-04-04T09:01:05.044Z,100024.45
2023-04-04T09:03:37.291Z,100025.43
2023-04-04T09:06:08.694Z,100021.73
2023-04-04T09:08:39.686Z,100030.42
2023-04-04T09:11:16.645Z,100021.95
2023-04-04T09:14:16.622Z,100021.82
2023-04-04T09:16:52.314Z,100022.41
2023-04-04T09:19:26.120Z,100022.95
2023-04-04T09:21:57.177Z,100020.20
2023-04-04T09:24:29.164Z,100020.50
2023-04-04T09:27:01.836Z,100013.95
2023-04-04T09:29:32.651Z,100012.58
2023-04-04T09:32:03.584Z,100013.74
2023-04-04T09:34:35.963Z,100009.30
2023-04-04T09:37:09.729Z,100010.36
2023-04-04T09:39:42.551Z,100010.15
2023-04-04T09:42:16.780Z,100012.42
2023-04-04T09:44:47.657Z,100011.00
2023-04-04T09:47:34.621Z,100012.52
2023-04-04T09:50:06.111Z,100017.10
2023-04-04T09:52:37.061Z,100017.55
2023-04-04T09:55:08.539Z,100020.93
2023-04-04T09:57:40.974Z,100017.05
2023-04-04T10:00:12.638Z,100015.04
2023-04-04T10:02:47.869Z,100014.54
2023-04-04T10:05:19.832Z,100020.70
2023-04-04T10:07:51.070Z,100020.96
2023-04-04T10:10:22.461Z,100025.48
2023-04-04T10:12:54.511Z,100029.08
2023-04-04T10:15:28.228Z,100032.21
2023-04-04T10:17:59.197Z,100032.30
2023-04-04T10:20:32.042Z,100030.66
2023-04-04T10:23:02.960Z,100034.50
2023-04-04T10:25:33.802Z,100031.30
2023-04-04T10:28:04.788Z,100031.90
2023-04-04T10:30:37.042Z,100030.25
2023-04-04T10:33:09.105Z,100030.13
2023-04-04T10:35:39.924Z,100026.52
2023-04-04T10:38:11.006Z,100025.73
2023-04-04T10:40:42.154Z,100026.19
2023-04-04T10:43:13.505Z,100021.06
2023-04-04T10:45:44.271Z,100023.83
2023-04-04T10:48:15.420Z,100023.83
2023-04-04T10:50:46.711Z,100021.12
2023-04-04T10:53:17.293Z,100012.19
2023-04-04T10:55:48.002Z,100024.31
2023-04-04T10:58:18.780Z,100020.31
2023-04-04T11:00:55.407Z,100029.73
2023-04-04T11:03:26.746Z,100019.82
2023-04-04T11:06:02.011Z,100015.89
2023-04-04T11:08:37.595Z,100026.19
2023-04-04T11:11:16.349Z,100027.15
2023-04-04T11:14:01.833Z,100018.20
2023-04-04T11:16:39.882Z,100013.21
2023-04-04T11:19:14.613Z,100009.40
2023-04-04T11:21:46.802Z,100016.27
2023-04-04T11:24:18.506Z,100016.28
2023-04-04T11:26:50.103Z,100016.40
2023-04-04T11:29:45.069Z,100013.48
2023-04-04T11:35:16.108Z,100019.34
2023-04-04T11:37:47.272Z,100010.91
2023-04-04T11:40:18.520Z,100016.21
2023-04-04T11:42:53.537Z,100016.43
2023-04-04T11:45:27.381Z,100013.97
2023-04-04T11:47:58.392Z,100013.80
2023-04-04T11:50:29.810Z,100013.77
2023-04-04T11:53:00.686Z,100018.86
2023-04-04T11:55:31.517Z,100015.75
2023-04-04T11:58:09.537Z,100016.63
2023-04-04T12:00:44.312Z,100015.52
2023-04-04T12:03:16.712Z,100019.73
2023-04-04T12:05:49.355Z,100016.95
2023-04-04T12:08:20.252Z,100017.28
2023-04-04T12:10:51.150Z,100015.10
2023-04-04T12:13:22.001Z,100014.98
2023-04-04T12:15:52.819Z,100011.88
2023-04-04T12:18:23.813Z,100009.04
2023-04-04T12:20:54.622Z,100019.86
2023-04-04T12:23:25.290Z,100014.90
2023-04-04T12:25:56.063Z,100020.67
2023-04-04T12:28:28.369Z,100014.64
2023-04-04T12:31:05.474Z,100019.05
2023-04-04T12:33:36.740Z,100016.16
2023-04-04T12:36:07.938Z,100008.86
2023-04-04T12:38:56.756Z,100011.61
2023-04-04T12:41:28.522Z,100013.69
2023-04-04T12:44:05.961Z,100014.48
2023-04-04T12:46:40.255Z,100016.16
2023-04-04T12:49:12.019Z,100021.00
2023-04-04T12:51:43.386Z,100026.09
2023-04-04T12:54:25.758Z,100029.34
2023-04-04T12:56:59.803Z,100030.27
2023-04-04T12:59:31.993Z,100022.71
2023-04-04T13:02:03.772Z,100023.81
2023-04-04T13:04:34.822Z,100027.30
2023-04-04T13:07:06.088Z,100027.74
2023-04-04T13:09:37.315Z,100027.52
2023-04-04T13:12:09.973Z,100031.94
2023-04-04T13:14:58.354Z,100035.86
2023-04-04T13:17:41.834Z,100041.67
2023-04-04T13:24:21.118Z,100046.05
2023-04-04T13:27:43.790Z,100052.45
2023-04-04T13:30:33.526Z,100053.23
2023-04-04T13:33:06.144Z,100051.05
2023-04-04T13:35:47.949Z,100048.59
2023-04-04T13:38:18.757Z,100051.84
2023-04-04T13:40:49.632Z,100047.61
2023-04-04T13:43:20.555Z,100054.77
2023-04-04T13:45:53.177Z,100054.11
2023-04-04T13:48:24.156Z,100055.80
2023-04-04T13:50:55.688Z,100057.22
2023-04-04T13:53:26.651Z,100061.21
2023-04-04T13:56:17.016Z,100058.55
2023-04-04T13:58:50.460Z,100055.23
2023-04-04T14:01:21.644Z,100058.69
2023-04-04T14:03:52.692Z,100058.46
2023-04-04T14:06:23.793Z,100065.63
2023-04-04T14:08:56.443Z,100064.23
2023-04-04T14:11:31.141Z,100062.09
2023-04-04T14:14:02.889Z,100063.85
2023-04-04T14:16:35.844Z,100064.55
2023-04-04T14:19:07.253Z,100060.68
2023-04-04T14:21:40.237Z,100058.30
2023-04-04T14:24:17.406Z,100064.34
2023-04-04T14:26:51.680Z,100067.55
2023-04-04T14:29:24.044Z,100069.66
2023-04-04T14:31:58.495Z,100066.83
2023-04-04T14:34:29.523Z,100070.11
2023-04-04T14:37:04.737Z,100064.46
2023-04-04T14:39:36.466Z,100063.70
2023-04-04T14:42:09.008Z,100067.36
2023-04-04T14:44:39.678Z,100063.49
2023-04-04T14:47:10.702Z,100065.75
2023-04-04T14:49:43.108Z,100066.83
2023-04-04T14:52:15.242Z,100070.30
2023-04-04T14:54:46.123Z,100076.60
2023-04-04T14:57:17.826Z,100072.80
2023-04-04T14:59:50.481Z,100076.20
2023-04-04T15:02:21.826Z,100078.42
2023-04-04T15:04:52.747Z,100080.76
2023-04-04T15:07:24.814Z,100081.69
2023-04-04T15:09:56.166Z,100088.23
2023-04-04T15:12:28.860Z,100086.46
2023-04-04T15:15:00.458Z,100085.02
2023-04-04T15:17:34.151Z,100092.66
2023-04-04T15:20:07.141Z,100092.74
2023-04-04T15:22:38.838Z,100089.05
2023-04-04T15:25:18.382Z,100095.81
2023-04-04T15:28:26.897Z,100093.95
2023-04-04T15:37:57.428Z,100103.83
2023-04-04T15:40:28.205Z,100107.91
2023-04-04T15:42:59.321Z,100110.77
2023-04-04T15:45:30.318Z,100111.49
2023-04-04T15:48:01.388Z,100114.29
2023-04-04T15:50:32.329Z,100111.15
2023-04-04T15:53:03.197Z,100112.21
2023-04-04T15:55:34.179Z,100113.18
2023-04-04T15:58:04.946Z,100114.83
2023-04-04T16:00:36.134Z,100112.93
2023-04-04T16:03:07.498Z,100113.21
2023-04-04T16:05:44.109Z,100115.84
2023-04-04T16:08:18.434Z,100115.98
2023-04-04T16:10:50.721Z,100118.64
2023-04-04T16:13:22.760Z,100119.95
2023-04-04T16:15:53.707Z,100125.88
2023-04-04T16:18:24.281Z,100126.10
2023-04-04T16:20:55.232Z,100129.48
2023-04-04T16:26:29.690Z,100135.83
2023-04-04T16:29:03.229Z,100139.36
2023-04-04T16:31:34.023Z,100140.23
2023-04-04T16:34:04.746Z,100141.93
2023-04-04T16:36:44.578Z,100143.40
2023-04-04T16:39:17.143Z,100147.02
2023-04-04T16:41:47.988Z,100151.23
2023-04-04T16:44:24.681Z,100149.98
2023-04-04T16:46:57.140Z,100152.48
2023-04-04T16:49:37.530Z,100152.15
2023-04-04T16:52:11.921Z,100153.54
2023-04-04T16:54:58.656Z,100154.45
2023-04-04T16:57:39.595Z,100157.44
2023-04-04T17:00:14.685Z,100157.20
2023-04-04T17:02:47.074Z,100158.63
2023-04-04T17:05:22.408Z,100160.04
2023-04-04T17:07:54.158Z,100160.06
2023-04-04T17:10:27.793Z,100161.82
2023-04-04T17:13:00.479Z,100164.46
2023-04-04T17:15:31.848Z,100165.45
2023-04-04T17:18:03.220Z,100170.79
2023-04-04T17:26:48.061Z,100183.69
2023-04-04T17:29:38.035Z,100186.36
2023-04-04T17:32:19.885Z,100188.91
2023-04-04T17:35:10.736Z,100193.20
2023-04-04T17:37:46.575Z,100191.22
2023-04-04T17:40:37.183Z,100188.46
2023-04-04T17:43:14.839Z,100194.90
2023-04-04T17:45:49.927Z,100195.16
2023-04-04T17:48:29.104Z,100196.61
2023-04-04T17:51:01.517Z,100199.90
2023-04-04T17:53:34.408Z,100204.85
2023-04-04T17:56:06.676Z,100213.00
2023-04-04T17:58:37.599Z,100214.63
2023-04-04T18:01:09.827Z,100217.47
2023-04-04T18:03:41.363Z,100221.44
2023-04-04T18:06:14.822Z,100225.54
2023-04-04T18:08:46.009Z,100229.23
2023-04-04T18:11:21.444Z,100228.14
2023-04-04T18:13:53.816Z,100230.86
2023-04-04T18:16:24.840Z,100229.58
2023-04-04T18:18:56.965Z,100231.27
2023-04-04T18:21:29.931Z,100231.36
2023-04-04T18:24:03.134Z,100240.54
2023-04-04T18:26:36.733Z,100240.35
2023-04-04T18:29:08.480Z,100244.31
2023-04-04T18:31:39.918Z,100243.73
2023-04-04T18:34:21.450Z,100248.14
2023-04-04T18:36:59.468Z,100244.77
2023-04-04T18:39:35.313Z,100240.71
2023-04-04T18:42:11.817Z,100240.45
2023-04-04T18:44:44.126Z,100245.64
2023-04-04T18:47:24.524Z,100249.29
2023-04-04T18:49:55.804Z,100253.05
2023-04-04T18:52:26.921Z,100253.05
2023-04-04T18:54:57.698Z,100251.61
2023-04-04T18:57:28.636Z,100254.48
2023-04-04T18:59:59.854Z,100253.80
2023-04-04T19:02:32.662Z,100255.59
2023-04-04T19:05:03.722Z,100260.39
2023-04-04T19:07:34.750Z,100260.22
2023-04-04T19:10:06.958Z,100261.30
2023-04-04T19:12:37.954Z,100263.35
2023-04-04T19:15:09.406Z,100267.64
2023-04-04T19:17:40.478Z,100265.73
2023-04-04T19:20:12.769Z,100270.73
2023-04-04T19:22:43.505Z,100271.70
2023-04-04T19:25:14.381Z,100277.27
2023-04-04T19:27:45.175Z,100276.59
2023-04-04T19:30:29.704Z,100279.27
2023-04-04T19:33:00.983Z,100283.33
2023-04-04T19:35:45.574Z,100282.72
2023-04-04T19:38:19.509Z,100285.52
2023-04-04T19:40:51.035Z,100284.06
2023-04-04T19:43:24.380Z,100284.33
2023-04-04T19:45:55.877Z,100285.98
2023-04-04T19:48:41.879Z,100290.27
2023-04-04T19:51:13.911Z,100287.76
2023-04-04T19:53:47.466Z,100293.48
2023-04-04T19:56:19.056Z,100293.48
2023-04-04T19:58:49.905Z,100298.61
2023-04-04T20:01:23.441Z,100301.61
2023-04-04T20:03:54.914Z,100304.31
2023-04-04T20:06:31.234Z,100302.77
2023-04-04T20:15:16.252Z,100306.66
2023-04-04T20:17:47.996Z,100307.36
2023-04-04T20:20:45.157Z,100308.48
2023-04-04T20:23:20.128Z,100309.39
2023-04-04T20:25:52.603Z,100311.13
2023-04-04T20:28:27.377Z,100309.17
2023-04-04T20:30:59.051Z,100311.42
2023-04-04T20:33:34.343Z,100310.17
2023-04-04T20:36:33.114Z,100310.19
2023-04-04T20:39:05.917Z,100314.02
2023-04-04T20:41:38.188Z,100314.57
2023-04-04T20:44:18.561Z,100311.86
2023-04-04T20:46:49.411Z,100315.23
2023-04-04T20:49:20.383Z,100315.93
2023-04-04T20:51:51.272Z,100315.77
2023-04-04T20:54:22.115Z,100313.88
2023-04-04T20:56:57.374Z,100318.05
2023-04-04T20:59:35.773Z,100314.95
2023-04-04T21:02:18.541Z,100313.45
2023-04-04T21:04:53.380Z,100316.41
2023-04-04T21:07:37.532Z,100319.19
2023-04-04T21:10:25.016Z,100316.84
2023-04-04T21:12:56.611Z,100322.38
2023-04-04T21:15:29.756Z,100323.61
2023-04-04T21:18:02.039Z,100321.89
2023-04-04T21:20:59.792Z,100319.45
2023-04-04T21:23:33.897Z,100317.44
2023-04-04T21:26:05.454Z,100319.52
2023-04-04T21:28:37.734Z,100319.29
2023-04-04T21:31:12.270Z,100315.98
2023-04-04T21:33:44.188Z,100315.46
2023-04-04T21:36:19.605Z,100314.84
2023-04-04T21:38:50.627Z,100317.08
2023-04-04T21:41:23.341Z,100316.63
2023-04-04T21:43:54.405Z,100315.94
2023-04-04T21:46:25.941Z,100316.48
2023-04-04T21:48:57.138Z,100316.70
2023-04-04T21:51:28.562Z,100316.75
2023-04-04T21:53:59.572Z,100316.98
2023-04-04T21:56:32.907Z,100318.24
2023-04-04T21:59:04.552Z,100312.49
2023-04-04T22:01:35.659Z,100316.33
2023-04-04T22:04:06.838Z,100320.34
2023-04-04T22:06:37.758Z,100319.67
2023-04-04T22:09:09.115Z,100322.66
2023-04-04T22:11:44.554Z,100316.43
2023-04-04T22:14:18.288Z,100316.16
2023-04-04T22:16:49.552Z,100316.28
2023-04-04T22:19:23.869Z,100319.09
2023-04-04T22:21:55.419Z,100319.62
2023-04-04T22:24:26.490Z,100319.64
2023-04-04T22:26:57.402Z,100319.91
2023-04-04T22:29:28.332Z,100318.15
2023-04-04T22:31:59.277Z,100317.64
2023-04-04T22:34:29.972Z,100315.55
2023-04-04T22:37:03.709Z,100319.13
2023-04-04T22:39:34.865Z,100322.77
2023-04-04T22:42:05.994Z,100322.73
2023-04-04T22:44:37.208Z,100321.67
2023-04-04T22:47:09.456Z,100324.30
2023-04-04T22:49:48.686Z,100326.54
2023-04-04T22:52:22.829Z,100325.84
2023-04-04T22:54:54.256Z,100326.80
2023-04-04T22:57:25.402Z,100328.72
2023-04-04T22:59:59.044Z,100326.02
2023-04-04T23:02:30.438Z,100325.97
2023-04-04T23:05:01.313Z,100327.08
2023-04-04T23:07:32.783Z,100330.68
2023-04-04T23:10:03.572Z,100330.85
2023-04-04T23:12:34.312Z,100329.55
2023-04-04T23:15:05.381Z,100334.20
2023-04-04T23:17:36.549Z,100334.43
2023-04-04T23:20:09.562Z,100337.89
2023-04-04T23:22:40.726Z,100339.23
2023-04-04T23:25:11.932Z,100339.88
2023-04-04T23:27:42.646Z,100333.95
2023-04-04T23:30:13.820Z,100335.48
2023-04-04T23:32:44.809Z,100332.21
2023-04-04T23:35:15.612Z,100329.58
2023-04-04T23:37:46.390Z,100331.47
2023-04-04T23:40:17.397Z,100329.48
2023-04-04T23:42:48.168Z,100329.80
2023-04-04T23:45:19.140Z,100326.73
2023-04-04T23:47:50.116Z,100327.38
2023-04-04T23:50:21.012Z,100330.53
2023-04-04T23:52:51.803Z,100333.91
2023-04-04T23:55:22.716Z,100333.77
2023-04-04T23:57:56.367Z,100332.58
